Time;durP1;ratioP1;P1;durP2;ratioP2;P2;SDS_P1;SDS_P2;PMS_P1;PMS_P2;Temp;Humidity;BMP_temperature;BMP_pressure;BME280_temperature;BME280_humidity;BME280_pressure;Samples;Min_cycle;Max_cycle;Signal;HPM_P1;HPM_P2
2021/08/21 00:00:15;;;;;;;8.82;5.57;;;;;;;13.49;100.00;96062.28;1035521;28;20018;-72
2021/08/21 00:00:46;;;;;;;9.25;5.80;;;;;;;13.51;100.00;96068.84;1034921;28;20025;-71
2021/08/21 00:01:16;;;;;;;8.25;5.82;;;;;;;13.52;100.00;96067.00;1027142;28;20033;-72
2021/08/21 00:01:47;;;;;;;7.75;5.88;;;;;;;13.50;100.00;96069.13;1022959;28;20027;-71
2021/08/21 00:02:17;;;;;;;7.47;6.22;;;;;;;13.49;100.00;96068.34;1027288;28;20034;-71
2021/08/21 00:02:48;;;;;;;7.88;6.30;;;;;;;13.49;100.00;96067.56;1026688;28;20042;-71
2021/08/21 00:03:18;;;;;;;9.27;5.90;;;;;;;13.48;100.00;96066.78;1023520;28;20047;-71
2021/08/21 00:03:49;;;;;;;7.65;5.65;;;;;;;13.49;100.00;96064.91;1031093;28;20078;-70
2021/08/21 00:04:19;;;;;;;12.55;6.20;;;;;;;13.48;100.00;96064.13;1027079;28;20027;-72
2021/08/21 00:04:51;;;;;;;7.55;5.22;;;;;;;13.48;100.00;96063.31;1035349;28;20140;-71
2021/08/21 00:05:21;;;;;;;9.70;5.53;;;;;;;13.46;100.00;96063.59;1035564;28;20512;-72
2021/08/21 00:05:52;;;;;;;8.63;6.07;;;;;;;13.38;100.00;96054.44;1031470;28;20279;-71
2021/08/21 00:06:22;;;;;;;9.10;6.35;;;;;;;13.46;100.00;96070.72;1035327;28;20030;-71
2021/08/21 00:06:53;;;;;;;6.82;5.57;;;;;;;13.46;100.00;96060.97;1034414;28;20761;-71
2021/08/21 00:07:23;;;;;;;8.27;5.90;;;;;;;13.46;100.00;96062.81;1031561;28;20027;-71
2021/08/21 00:07:54;;;;;;;11.27;6.82;;;;;;;13.44;100.00;96071.78;1039100;28;20033;-71
2021/08/21 00:08:24;;;;;;;14.25;6.90;;;;;;;13.44;100.00;96066.50;1031204;28;20666;-71
2021/08/21 00:08:55;;;;;;;15.88;7.18;;;;;;;13.43;100.00;96067.56;1031214;28;20030;-73
2021/08/21 00:09:25;;;;;;;9.75;5.88;;;;;;;13.42;100.00;96060.72;1033473;28;20432;-71
2021/08/21 00:09:56;;;;;;;28.92;7.40;;;;;;;13.43;100.00;96067.56;1031299;28;20037;-73
2021/08/21 00:10:28;;;;;;;13.82;6.55;;;;;;;13.42;100.00;96066.00;1031348;28;20034;-71
2021/08/21 00:10:58;;;;;;;27.17;7.53;;;;;;;13.39;100.00;96057.84;1032097;28;20030;-73
2021/08/21 00:11:29;;;;;;;20.70;6.47;;;;;;;13.41;100.00;96061.81;1031984;28;20277;-71
2021/08/21 00:11:59;;;;;;;12.82;5.95;;;;;;;13.40;100.00;96065.47;1038685;28;20025;-71
2021/08/21 00:12:30;;;;;;;18.25;6.68;;;;;;;13.39;100.00;96061.28;1035290;28;20022;-71
2021/08/21 00:13:00;;;;;;;8.07;6.50;;;;;;;13.38;100.00;96067.63;1030796;28;20030;-71
2021/08/21 00:13:31;;;;;;;15.60;6.00;;;;;;;13.38;100.00;96064.97;1035362;28;20103;-70
2021/08/21 00:14:01;;;;;;;11.65;5.95;;;;;;;13.36;100.00;96058.41;1035533;28;20049;-72
2021/08/21 00:14:32;;;;;;;6.93;5.85;;;;;;;13.38;100.00;96061.53;1035357;28;20029;-71
2021/08/21 00:15:03;;;;;;;6.80;5.72;;;;;;;13.38;100.00;96067.63;1035210;28;20109;-71
2021/08/21 00:15:34;;;;;;;13.27;6.53;;;;;;;13.37;100.00;96060.75;1035488;28;20021;-71
2021/08/21 00:16:04;;;;;;;9.77;6.07;;;;;;;13.36;100.00;96061.81;1031364;28;20349;-71
2021/08/21 00:16:35;;;;;;;10.73;6.10;;;;;;;13.35;100.00;96060.25;1031234;28;20026;-71
2021/08/21 00:17:05;;;;;;;7.97;6.30;;;;;;;13.37;100.00;96063.38;1022810;29;20066;-71
2021/08/21 00:17:36;;;;;;;9.90;5.70;;;;;;;13.34;100.00;96061.28;1023447;28;20027;-71
2021/08/21 00:18:07;;;;;;;10.52;6.20;;;;;;;13.32;100.00;96057.38;1023003;28;20492;-71
2021/08/21 00:18:37;;;;;;;7.18;5.60;;;;;;;13.33;100.00;96058.94;1031066;28;20292;-71
2021/08/21 00:19:08;;;;;;;7.88;5.70;;;;;;;13.33;100.00;96062.34;1023388;28;20062;-71
2021/08/21 00:19:38;;;;;;;7.50;6.43;;;;;;;13.33;100.00;96061.56;1027075;28;20023;-71
2021/08/21 00:20:09;;;;;;;9.65;5.93;;;;;;;13.34;100.00;96068.41;1031296;28;20065;-72
2021/08/21 00:20:39;;;;;;;8.23;6.47;;;;;;;13.33;100.00;96067.63;1035379;28;20050;-71
2021/08/21 00:21:13;;;;;;;7.00;6.30;;;;;;;13.31;100.00;96061.84;1039294;28;20030;-71
2021/08/21 00:21:44;;;;;;;8.60;6.00;;;;;;;13.29;100.00;96063.97;1038645;28;20025;-71
2021/08/21 00:22:14;;;;;;;10.50;6.32;;;;;;;13.23;100.00;96051.06;1039918;28;20288;-71
2021/08/21 00:22:44;;;;;;;6.90;6.20;;;;;;;13.25;100.00;96057.66;1035236;28;20042;-71
2021/08/21 00:23:15;;;;;;;7.82;6.30;;;;;;;13.27;100.00;96068.69;1034792;28;20396;-71
2021/08/21 00:23:45;;;;;;;7.53;6.53;;;;;;;13.27;100.00;96066.06;1035396;28;20655;-71
2021/08/21 00:24:16;;;;;;;9.35;6.00;;;;;;;13.26;100.00;96059.22;1035349;28;20036;-71
2021/08/21 00:24:46;;;;;;;8.23;6.78;;;;;;;13.26;100.00;96059.22;1042569;28;20384;-71
2021/08/21 00:25:17;;;;;;;8.85;6.20;;;;;;;13.26;100.00;96072.41;1035345;28;20033;-71
2021/08/21 00:25:47;;;;;;;7.45;6.35;;;;;;;13.24;100.00;96063.97;1027185;28;20031;-71
2021/08/21 00:26:17;;;;;;;10.55;6.88;;;;;;;13.23;100.00;96064.22;1028671;28;20038;-70
2021/08/21 00:26:48;;;;;;;12.23;6.32;;;;;;;13.23;100.00;96062.38;1026756;28;20019;-72
2021/08/21 00:27:18;;;;;;;9.00;6.80;;;;;;;13.21;100.00;96061.84;1030772;28;20041;-71
2021/08/21 00:27:49;;;;;;;8.98;7.13;;;;;;;13.21;100.00;96065.28;1035396;28;20030;-71
2021/08/21 00:28:19;;;;;;;7.80;6.82;;;;;;;13.20;100.00;96066.34;1033185;28;20021;-71
2021/08/21 00:28:50;;;;;;;8.05;6.15;;;;;;;13.19;100.00;96064.75;1035945;28;20022;-71
2021/08/21 00:29:20;;;;;;;9.23;6.78;;;;;;;13.19;100.00;96061.34;1039540;28;20030;-71
2021/08/21 00:29:50;;;;;;;7.70;6.68;;;;;;;13.18;100.00;96059.78;1034552;28;20033;-71
2021/08/21 00:30:21;;;;;;;8.90;7.07;;;;;;;13.17;100.00;96060.81;1031402;28;20404;-71
2021/08/21 00:30:51;;;;;;;9.82;7.13;;;;;;;13.15;100.00;96058.47;1027217;28;20409;-71
2021/08/21 00:31:22;;;;;;;7.78;6.75;;;;;;;13.14;100.00;96058.72;1023109;28;20070;-71
2021/08/21 00:31:52;;;;;;;9.50;7.43;;;;;;;13.15;100.00;96062.94;1030508;28;20030;-70
2021/08/21 00:32:23;;;;;;;8.45;7.07;;;;;;;13.14;100.00;96058.72;1031150;28;20085;-71
2021/08/21 00:32:53;;;;;;;8.65;7.15;;;;;;;13.12;100.00;96063.50;1027067;28;20018;-71
2021/08/21 00:33:23;;;;;;;10.20;7.07;;;;;;;13.10;100.00;96057.69;1034659;28;20570;-71
2021/08/21 00:33:54;;;;;;;8.55;7.05;;;;;;;13.11;100.00;96057.44;1027097;28;20579;-72
2021/08/21 00:34:24;;;;;;;7.82;6.93;;;;;;;13.11;100.00;96059.25;1027264;28;20505;-71
2021/08/21 00:34:55;;;;;;;8.20;6.72;;;;;;;13.10;100.00;96060.31;1030717;28;20026;-70
2021/08/21 00:35:25;;;;;;;9.07;7.07;;;;;;;13.11;100.00;96062.72;1026102;28;20031;-71
2021/08/21 00:35:56;;;;;;;8.95;7.47;;;;;;;12.99;100.00;96043.78;1031195;28;20022;-71
2021/08/21 00:36:26;;;;;;;14.50;7.22;;;;;;;13.11;100.00;96054.00;1032016;28;20026;-71
2021/08/21 00:36:57;;;;;;;10.50;6.85;;;;;;;13.11;100.00;96057.44;1038356;28;20021;-71
2021/08/21 00:37:27;;;;;;;7.80;6.32;;;;;;;13.11;100.00;96051.34;1039395;28;20034;-71
2021/08/21 00:37:58;;;;;;;12.18;6.93;;;;;;;13.12;100.00;96059.00;1035105;28;20483;-71
2021/08/21 00:38:28;;;;;;;11.25;7.10;;;;;;;13.10;100.00;96049.78;1031081;28;20384;-71
2021/08/21 00:38:58;;;;;;;8.40;6.60;;;;;;;13.15;100.00;96057.69;1030865;28;20031;-71
2021/08/21 00:39:29;;;;;;;9.48;6.28;;;;;;;13.15;100.00;96057.69;1027234;28;20037;-71
2021/08/21 00:39:59;;;;;;;8.48;6.68;;;;;;;13.11;100.00;96049.53;1027503;28;20023;-71
2021/08/21 00:40:30;;;;;;;6.78;6.00;;;;;;;13.17;100.00;96055.53;1018114;28;20047;-71
2021/08/21 00:41:00;;;;;;;9.02;7.10;;;;;;;13.17;100.00;96060.81;1026403;28;20082;-72
2021/08/21 00:41:33;;;;;;;8.75;6.28;;;;;;;13.10;100.00;96047.94;1031238;28;20400;-71
2021/08/21 00:42:04;;;;;;;11.73;7.60;;;;;;;13.15;100.00;96062.94;1021073;29;20036;-71
2021/08/21 00:42:34;;;;;;;9.88;7.63;;;;;;;13.14;100.00;96064.00;1019413;29;20294;-70
2021/08/21 00:43:05;;;;;;;11.82;7.22;;;;;;;13.09;100.00;96056.91;1020624;28;20668;-71
2021/08/21 00:43:36;;;;;;;9.07;7.07;;;;;;;13.09;100.00;96050.84;1031646;28;20030;-70
2021/08/21 00:44:07;;;;;;;10.25;7.05;;;;;;;13.09;100.00;96053.50;1035199;28;20061;-70
2021/08/21 00:44:39;;;;;;;14.40;6.97;;;;;;;13.12;100.00;96058.22;1035356;28;20280;-71
2021/08/21 00:45:10;;;;;;;9.27;6.07;;;;;;;13.11;100.00;96054.81;1035447;28;20100;-70
2021/08/21 00:45:40;;;;;;;9.43;6.55;;;;;;;13.14;100.00;96061.34;1032429;28;20273;-72
2021/08/21 00:46:10;;;;;;;7.35;5.97;;;;;;;13.16;100.00;96049.50;1035609;28;20451;-71
2021/08/21 00:46:57;;;;;;;12.85;6.43;;;;;;;13.20;100.00;96055.00;1039529;28;20434;-70
2021/08/21 00:47:28;;;;;;;8.48;6.60;;;;;;;13.23;100.00;96057.09;1042856;28;20536;-71
2021/08/21 00:48:00;;;;;;;6.80;6.07;;;;;;;13.27;100.00;96055.53;1039513;28;20283;-71
2021/08/21 00:48:30;;;;;;;7.20;6.32;;;;;;;13.27;100.00;96055.53;1039352;28;20028;-71
2021/08/21 00:49:00;;;;;;;10.05;6.85;;;;;;;13.28;100.00;96057.13;1034934;28;20344;-71
2021/08/21 00:49:34;;;;;;;10.25;6.75;;;;;;;13.30;100.00;96052.34;1031383;28;20050;-71
2021/08/21 00:50:05;;;;;;;10.82;6.60;;;;;;;13.15;100.00;96026.84;1031369;28;20557;-71
2021/08/21 00:50:35;;;;;;;9.52;6.93;;;;;;;13.30;100.00;96057.63;1032440;28;20117;-71
2021/08/21 00:51:06;;;;;;;9.05;7.18;;;;;;;13.34;100.00;96061.28;1031380;28;20835;-71
2021/08/21 00:51:36;;;;;;;8.35;7.00;;;;;;;13.36;100.00;96053.91;1035358;28;20038;-71
2021/08/21 00:52:09;;;;;;;7.35;6.40;;;;;;;13.34;100.00;96053.38;1034650;28;20025;-71
2021/08/21 00:52:40;;;;;;;6.93;6.22;;;;;;;13.37;100.00;96052.84;1023563;28;20023;-73
2021/08/21 00:53:10;;;;;;;6.90;6.20;;;;;;;13.34;100.00;96050.75;1023173;29;20274;-72
2021/08/21 00:53:41;;;;;;;7.82;6.65;;;;;;;13.40;100.00;96054.94;1019754;29;20038;-73
2021/08/21 00:54:11;;;;;;;8.32;6.50;;;;;;;13.39;100.00;96053.38;1026469;28;20081;-72
2021/08/21 00:54:42;;;;;;;8.98;6.82;;;;;;;13.38;100.00;96053.63;1035214;28;20029;-72
2021/08/21 00:55:12;;;;;;;8.25;6.68;;;;;;;13.39;100.00;96058.63;1039406;28;20036;-71
2021/08/21 00:55:43;;;;;;;9.32;6.63;;;;;;;13.39;100.00;96058.63;1037664;28;20030;-71
2021/08/21 00:56:14;;;;;;;8.45;6.57;;;;;;;13.38;100.00;96056.25;1039397;28;20026;-71
2021/08/21 00:56:44;;;;;;;11.10;6.88;;;;;;;13.38;100.00;96059.69;1035270;28;20388;-71
2021/08/21 00:57:15;;;;;;;7.00;6.30;;;;;;;13.26;100.00;96042.63;1031383;28;20033;-72
2021/08/21 00:57:46;;;;;;;8.65;6.78;;;;;;;13.34;100.00;96056.00;1031359;28;20026;-71
2021/08/21 00:58:20;;;;;;;7.93;6.53;;;;;;;13.32;100.00;96052.09;1031040;28;20049;-72
2021/08/21 00:58:50;;;;;;;8.40;7.00;;;;;;;13.33;100.00;96054.44;1024310;28;20034;-71
2021/08/21 00:59:21;;;;;;;7.15;6.45;;;;;;;13.29;100.00;96050.78;1031173;28;20269;-71
2021/08/21 00:59:51;;;;;;;8.13;6.80;;;;;;;13.27;100.00;96044.97;1027299;28;20061;-71
2021/08/21 01:00:22;;;;;;;8.90;6.75;;;;;;;13.32;100.00;96046.81;1023408;28;20026;-71
2021/08/21 01:00:53;;;;;;;9.73;6.20;;;;;;;13.25;100.00;96041.84;1028425;28;20030;-71
2021/08/21 01:01:23;;;;;;;8.98;6.40;;;;;;;13.33;100.00;96059.72;1023351;28;20027;-71
2021/08/21 01:01:53;;;;;;;7.88;6.45;;;;;;;13.31;100.00;96053.94;1022722;28;20521;-71
2021/08/21 01:02:24;;;;;;;10.93;7.40;;;;;;;13.32;100.00;96052.09;1019859;29;20031;-71
2021/08/21 01:02:54;;;;;;;6.72;6.03;;;;;;;13.33;100.00;96054.44;1019194;28;20047;-71
2021/08/21 01:03:25;;;;;;;8.27;7.10;;;;;;;13.32;100.00;96047.59;1023407;28;20474;-71
2021/08/21 01:03:55;;;;;;;8.32;7.20;;;;;;;13.33;100.00;96053.66;1027477;28;20023;-71
2021/08/21 01:04:26;;;;;;;8.48;6.78;;;;;;;13.32;100.00;96052.88;1030899;28;20026;-71
2021/08/21 01:04:57;;;;;;;10.05;6.70;;;;;;;13.32;100.00;96052.09;1035408;28;20471;-70
2021/08/21 01:05:28;;;;;;;8.60;7.00;;;;;;;13.31;100.00;96051.31;1038890;28;20021;-71
2021/08/21 01:05:58;;;;;;;9.73;7.05;;;;;;;13.30;100.00;96047.09;1037958;28;20300;-71
2021/08/21 01:06:29;;;;;;;7.88;6.93;;;;;;;13.30;100.00;96054.19;1035244;28;20034;-71
2021/08/21 01:07:00;;;;;;;12.98;7.60;;;;;;;13.28;100.00;96049.22;1031351;28;20093;-71
2021/08/21 01:07:33;;;;;;;8.68;6.82;;;;;;;13.26;100.00;96053.97;1027925;28;20026;-71
2021/08/21 01:08:03;;;;;;;10.68;7.00;;;;;;;13.26;100.00;96053.97;1030764;28;20794;-71
2021/08/21 01:08:34;;;;;;;8.13;6.57;;;;;;;13.23;100.00;96048.41;1031295;28;20262;-72
2021/08/21 01:09:04;;;;;;;7.72;6.57;;;;;;;13.25;100.00;96049.75;1030289;28;20062;-71
2021/08/21 01:09:36;;;;;;;8.82;6.60;;;;;;;13.23;100.00;96053.69;1038921;28;20025;-71
2021/08/21 01:10:08;;;;;;;9.25;6.65;;;;;;;13.23;100.00;96049.19;1035375;28;20021;-71
2021/08/21 01:10:39;;;;;;;9.57;6.90;;;;;;;13.20;100.00;96050.53;1035288;28;20256;-71
2021/08/21 01:11:09;;;;;;;10.00;6.95;;;;;;;13.17;100.00;96050.28;1034891;28;20319;-72
2021/08/21 01:11:40;;;;;;;8.00;7.20;;;;;;;13.16;100.00;96048.72;1031674;28;20034;-70
2021/08/21 01:12:15;;;;;;;8.50;7.30;;;;;;;13.15;100.00;96047.16;1039264;28;20033;-71
2021/08/21 01:12:47;;;;;;;11.48;7.55;;;;;;;13.13;100.00;96054.53;1035008;28;20025;-70
2021/08/21 01:13:17;;;;;;;8.32;7.25;;;;;;;13.12;100.00;96050.31;1027087;28;20783;-71
2021/08/21 01:13:48;;;;;;;11.38;7.55;;;;;;;13.10;100.00;96049.78;1027125;28;20262;-72
2021/08/21 01:14:18;;;;;;;10.70;7.72;;;;;;;13.08;100.00;96047.44;1027368;28;20050;-71
2021/08/21 01:14:50;;;;;;;8.13;7.28;;;;;;;12.98;100.00;96040.34;1026839;28;20035;-71
2021/08/21 01:15:21;;;;;;;10.63;7.45;;;;;;;13.04;100.00;96049.00;1031187;28;20722;-71
2021/08/21 01:15:52;;;;;;;12.38;7.22;;;;;;;13.03;100.00;96051.94;1031317;28;20276;-71
2021/08/21 01:16:23;;;;;;;10.57;7.55;;;;;;;13.02;100.00;96047.72;1022941;28;20286;-72
2021/08/21 01:16:56;;;;;;;11.48;7.65;;;;;;;12.94;100.00;96038.50;1027736;28;20031;-71
2021/08/21 01:17:26;;;;;;;12.35;7.03;;;;;;;12.91;100.00;96039.88;1023146;29;20031;-71
2021/08/21 01:17:57;;;;;;;8.40;6.82;;;;;;;12.98;100.00;96048.25;1027113;28;20980;-71
2021/08/21 01:18:27;;;;;;;8.45;7.25;;;;;;;12.97;100.00;96045.88;1027057;28;20401;-71
2021/08/21 01:18:58;;;;;;;9.02;6.78;;;;;;;12.99;100.00;96043.78;1023397;28;20035;-70
2021/08/21 01:19:29;;;;;;;11.60;7.22;;;;;;;13.00;100.00;96047.97;1024321;28;20035;-71
2021/08/21 01:20:00;;;;;;;7.10;6.07;;;;;;;13.03;100.00;96044.03;1023077;28;20031;-71
2021/08/21 01:20:31;;;;;;;10.25;6.57;;;;;;;13.03;100.00;96041.38;1027263;28;20266;-71
2021/08/21 01:21:02;;;;;;;7.55;6.75;;;;;;;13.06;100.00;96046.13;1019686;29;20071;-71
2021/08/21 01:21:32;;;;;;;9.27;6.38;;;;;;;13.08;100.00;96044.00;1023339;28;20083;-70
2021/08/21 01:22:07;;;;;;;8.27;7.38;;;;;;;13.09;100.00;96043.72;1026699;28;20030;-71
2021/08/21 01:22:37;;;;;;;8.65;6.40;;;;;;;13.09;100.00;96043.72;1028869;28;20532;-71
2021/08/21 01:23:08;;;;;;;12.48;7.38;;;;;;;13.09;100.00;96042.94;1026639;28;20266;-72
2021/08/21 01:23:38;;;;;;;8.38;6.43;;;;;;;13.09;100.00;96043.72;1026853;28;20454;-71
2021/08/21 01:24:09;;;;;;;9.07;6.60;;;;;;;13.09;100.00;96048.22;1027309;28;20049;-71
2021/08/21 01:24:39;;;;;;;8.57;6.93;;;;;;;13.09;100.00;96045.59;1031387;28;20582;-71
2021/08/21 01:25:15;;;;;;;9.23;6.72;;;;;;;13.08;100.00;96046.66;1039572;28;20037;-71
2021/08/21 01:25:45;;;;;;;7.13;6.18;;;;;;;13.07;100.00;96042.41;1031457;28;20026;-71
2021/08/21 01:26:16;;;;;;;7.72;6.60;;;;;;;13.07;100.00;96045.06;1028249;28;20278;-72
2021/08/21 01:26:56;;;;;;;8.77;6.90;;;;;;;13.05;100.00;96045.34;1030332;28;20031;-71
2021/08/21 01:27:33;;;;;;;8.63;6.20;;;;;;;13.05;100.00;96049.81;1025963;28;20027;-72
2021/08/21 01:28:04;;;;;;;6.88;6.18;;;;;;;13.06;100.00;96041.63;1027171;28;20039;-72
2021/08/21 01:28:34;;;;;;;8.43;6.40;;;;;;;13.06;100.00;96052.19;1025032;28;20274;-71
2021/08/21 01:29:05;;;;;;;7.10;6.13;;;;;;;13.06;100.00;96048.75;1028317;28;20039;-72
2021/08/21 01:29:37;;;;;;;10.35;7.25;;;;;;;13.05;100.00;96047.19;1028206;28;20677;-71
2021/08/21 01:30:10;;;;;;;9.35;6.82;;;;;;;13.04;100.00;96046.38;1035351;28;20268;-71
2021/08/21 01:30:42;;;;;;;9.15;6.13;;;;;;;12.98;100.00;96037.72;1035386;28;20279;-72
2021/08/21 01:31:13;;;;;;;9.23;6.50;;;;;;;13.05;100.00;96047.19;1036143;28;20829;-72
2021/08/21 01:31:43;;;;;;;10.65;6.13;;;;;;;13.01;100.00;96038.22;1034205;28;20352;-70
2021/08/21 01:32:14;;;;;;;9.20;6.82;;;;;;;13.03;100.00;96054.56;1022923;29;20051;-71
2021/08/21 01:32:45;;;;;;;9.55;7.95;;;;;;;13.01;100.00;96049.56;1022942;28;20029;-70
2021/08/21 01:33:15;;;;;;;10.35;7.82;;;;;;;13.00;100.00;96047.19;1026673;28;20614;-72
2021/08/21 01:33:46;;;;;;;9.73;6.88;;;;;;;12.95;100.00;96043.53;1030107;28;20026;-71
2021/08/21 01:34:19;;;;;;;11.90;7.20;;;;;;;12.89;100.00;96039.34;1035123;28;20022;-71
2021/08/21 01:34:50;;;;;;;14.02;8.38;;;;;;;12.94;100.00;96054.31;1030061;28;20036;-71
2021/08/21 01:35:20;;;;;;;8.95;7.15;;;;;;;12.86;100.00;96039.09;1031294;28;20273;-71
2021/08/21 01:35:54;;;;;;;8.13;6.82;;;;;;;12.88;100.00;96048.31;1031572;28;20018;-72
2021/08/21 01:36:24;;;;;;;8.35;6.82;;;;;;;12.89;100.00;96049.88;1030765;28;20041;-70
2021/08/21 01:36:54;;;;;;;11.98;7.43;;;;;;;12.87;100.00;96046.72;1030992;28;20273;-69
2021/08/21 01:37:28;;;;;;;10.07;7.07;;;;;;;12.86;100.00;96044.34;1031819;28;20471;-71
2021/08/21 01:37:59;;;;;;;10.57;7.15;;;;;;;12.84;100.00;96041.97;1035673;28;20030;-67
2021/08/21 01:38:29;;;;;;;11.85;6.63;;;;;;;12.78;100.00;96037.03;1039193;28;20264;-71
2021/08/21 01:38:59;;;;;;;9.68;7.13;;;;;;;12.81;100.00;96047.81;1038740;28;20029;-71
2021/08/21 01:39:30;;;;;;;9.40;7.00;;;;;;;12.79;100.00;96044.63;1035583;28;20030;-72
2021/08/21 01:40:00;;;;;;;10.25;6.85;;;;;;;12.79;100.00;96044.63;1037930;28;20032;-71
2021/08/21 01:40:31;;;;;;;11.70;7.00;;;;;;;12.77;100.00;96046.75;1037095;28;20697;-71
2021/08/21 01:41:01;;;;;;;9.32;7.75;;;;;;;12.76;100.00;96044.38;1035768;28;20048;-72
2021/08/21 01:41:32;;;;;;;11.70;7.50;;;;;;;12.74;100.00;96042.00;1039544;28;20032;-71
2021/08/21 01:42:02;;;;;;;14.10;7.55;;;;;;;12.74;100.00;96042.00;1036628;28;20080;-71
2021/08/21 01:42:33;;;;;;;9.07;6.53;;;;;;;12.70;100.00;96040.97;1039089;28;20030;-71
2021/08/21 01:43:03;;;;;;;8.60;6.47;;;;;;;12.71;100.00;96042.56;1038997;28;20029;-71
2021/08/21 01:43:34;;;;;;;8.43;7.22;;;;;;;12.68;100.00;96043.88;1033238;28;20030;-70
2021/08/21 01:44:13;;;;;;;8.68;6.60;;;;;;;12.68;100.00;96043.09;1028479;28;20085;-71
2021/08/21 01:44:44;;;;;;;8.15;5.82;;;;;;;12.61;100.00;96034.69;1029559;28;20496;-71
2021/08/21 01:45:14;;;;;;;8.10;6.47;;;;;;;12.64;100.00;96045.50;1030807;28;20262;-71
2021/08/21 01:45:45;;;;;;;7.65;6.70;;;;;;;12.65;100.00;96043.63;1029281;28;20042;-71
2021/08/21 01:46:15;;;;;;;9.27;6.97;;;;;;;12.64;100.00;96042.84;1030345;28;20034;-70
2021/08/21 01:46:49;;;;;;;8.20;6.60;;;;;;;12.63;100.00;96043.09;1030754;28;20034;-72
2021/08/21 01:47:19;;;;;;;9.10;6.40;;;;;;;12.63;100.00;96045.75;1031535;28;20104;-72
2021/08/21 01:47:50;;;;;;;8.38;6.80;;;;;;;12.62;100.00;96036.28;1035398;28;20265;-71
2021/08/21 01:48:20;;;;;;;10.68;6.75;;;;;;;12.62;100.00;96041.53;1038793;28;20045;-70
2021/08/21 01:48:51;;;;;;;9.65;7.05;;;;;;;12.61;100.00;96045.22;1034753;28;20037;-71
2021/08/21 01:49:22;;;;;;;9.57;6.75;;;;;;;12.60;100.00;96049.69;1030876;28;20030;-71
2021/08/21 01:50:00;;;;;;;10.32;7.25;;;;;;;12.59;100.00;96040.22;1030411;28;20093;-68
2021/08/21 01:50:31;;;;;;;10.93;6.78;;;;;;;12.58;100.00;96038.66;1030772;28;20297;-71
2021/08/21 01:51:02;;;;;;;9.07;7.43;;;;;;;12.57;100.00;96046.81;1027946;28;20309;-70
2021/08/21 01:51:32;;;;;;;10.77;6.75;;;;;;;12.57;100.00;96046.81;1031871;28;20093;-70
2021/08/21 01:52:03;;;;;;;9.63;7.95;;;;;;;12.56;100.00;96047.88;1025673;28;20035;-68
2021/08/21 01:52:34;;;;;;;8.38;7.40;;;;;;;12.54;100.00;96049.97;1031300;28;20512;-71
2021/08/21 01:53:04;;;;;;;15.05;7.50;;;;;;;12.49;100.00;96037.63;1026915;28;20266;-71
2021/08/21 01:53:35;;;;;;;8.05;7.25;;;;;;;12.53;100.00;96045.75;1027203;28;20018;-72
2021/08/21 01:54:05;;;;;;;12.93;7.22;;;;;;;12.52;100.00;96044.97;1031009;28;20070;-71
2021/08/21 01:54:36;;;;;;;10.88;7.15;;;;;;;12.53;100.00;96045.75;1026783;28;20539;-71
2021/08/21 01:55:07;;;;;;;11.77;7.72;;;;;;;12.52;100.00;96049.47;1021652;28;20497;-71
2021/08/21 01:55:38;;;;;;;14.07;7.75;;;;;;;12.52;100.00;96044.19;1022706;29;20027;-71
2021/08/21 01:56:09;;;;;;;8.75;7.15;;;;;;;12.41;100.00;96044.22;1022750;29;20862;-71
2021/08/21 01:56:52;;;;;;;10.68;7.50;;;;;;;12.48;100.00;96051.84;1026689;28;20030;-71
2021/08/21 01:57:23;;;;;;;13.52;7.45;;;;;;;12.48;100.00;96047.34;1030545;28;20118;-72
2021/08/21 01:57:53;;;;;;;9.70;7.07;;;;;;;12.49;100.00;96048.16;1028785;28;20791;-71
2021/08/21 01:58:24;;;;;;;11.20;7.43;;;;;;;12.47;100.00;96043.16;1030538;28;20038;-71
2021/08/21 01:58:54;;;;;;;14.23;7.97;;;;;;;12.48;100.00;96044.72;1018849;29;20027;-71
2021/08/21 01:59:44;;;;;;;9.93;7.03;;;;;;;12.46;100.00;96052.09;1018968;28;20091;-71
2021/08/21 02:00:15;;;;;;;9.73;7.50;;;;;;;12.44;100.00;96043.69;1025913;28;20563;-71
2021/08/21 02:00:45;;;;;;;11.35;7.45;;;;;;;12.40;100.00;96037.34;1026981;28;20528;-71
2021/08/21 02:01:16;;;;;;;20.42;8.20;;;;;;;12.43;100.00;96049.22;1026588;28;20412;-71
2021/08/21 02:01:49;;;;;;;16.17;8.05;;;;;;;12.43;100.00;96047.34;1025043;28;20038;-70
2021/08/21 02:02:21;;;;;;;28.73;9.23;;;;;;;12.43;100.00;96046.56;1023682;28;20645;-71
2021/08/21 02:02:51;;;;;;;24.17;9.05;;;;;;;12.45;100.00;96047.09;1031801;28;20035;-69
2021/08/21 02:03:22;;;;;;;13.82;8.38;;;;;;;12.42;100.00;96040.53;1038614;28;20322;-71
2021/08/21 02:03:52;;;;;;;21.63;8.93;;;;;;;12.41;100.00;96044.22;1035065;28;20029;-71
2021/08/21 02:04:23;;;;;;;15.43;8.00;;;;;;;12.40;100.00;96047.88;1039006;28;20037;-71
2021/08/21 02:04:53;;;;;;;15.88;8.00;;;;;;;12.42;100.00;96045.78;1039195;28;20164;-71
2021/08/21 02:05:24;;;;;;;16.77;8.55;;;;;;;12.43;100.00;96044.72;1038211;28;20091;-71
2021/08/21 02:05:54;;;;;;;12.00;8.13;;;;;;;12.38;100.00;96034.22;1034708;28;20061;-71
2021/08/21 02:06:25;;;;;;;12.27;8.38;;;;;;;12.43;100.00;96042.09;1030794;28;20035;-71
2021/08/21 02:06:55;;;;;;;9.80;7.80;;;;;;;12.39;100.00;96042.91;1030212;28;20026;-71
2021/08/21 02:07:25;;;;;;;10.95;7.97;;;;;;;12.40;100.00;96045.25;1034845;28;20030;-71
2021/08/21 02:07:56;;;;;;;14.18;7.78;;;;;;;12.37;100.00;96043.16;1034891;28;20033;-71
2021/08/21 02:08:26;;;;;;;10.77;7.97;;;;;;;12.39;100.00;96048.16;1034547;28;20088;-72
2021/08/21 02:08:57;;;;;;;9.45;8.20;;;;;;;12.38;100.00;96044.75;1034979;28;20038;-71
2021/08/21 02:09:27;;;;;;;12.30;8.35;;;;;;;12.32;100.00;96034.50;1034933;28;20041;-71
2021/08/21 02:09:58;;;;;;;10.90;8.30;;;;;;;12.34;100.00;96041.06;1034704;28;20034;-71
2021/08/21 02:10:28;;;;;;;11.27;8.65;;;;;;;12.34;100.00;96038.44;1034343;28;20053;-70
2021/08/21 02:10:59;;;;;;;12.40;9.27;;;;;;;12.35;100.00;96047.91;1034944;28;20034;-71
2021/08/21 02:11:29;;;;;;;13.32;7.72;;;;;;;12.35;100.00;96049.75;1030806;28;20018;-68
2021/08/21 02:12:00;;;;;;;10.27;7.60;;;;;;;12.28;100.00;96039.50;1029683;28;20038;-71
2021/08/21 02:12:33;;;;;;;10.10;9.00;;;;;;;12.32;100.00;96050.28;1030775;28;20122;-71
2021/08/21 02:13:03;;;;;;;9.68;8.35;;;;;;;12.30;100.00;96047.91;1031293;28;20030;-71
2021/08/21 02:13:34;;;;;;;11.95;8.45;;;;;;;12.28;100.00;96042.13;1035318;28;20268;-71
2021/08/21 02:14:05;;;;;;;9.98;7.63;;;;;;;12.32;100.00;96043.19;1030599;28;20184;-71
2021/08/21 02:14:35;;;;;;;10.07;8.57;;;;;;;12.32;100.00;96039.75;1030527;28;20014;-71
2021/08/21 02:15:08;;;;;;;9.95;8.77;;;;;;;12.26;100.00;96036.34;1026864;28;20068;-71
2021/08/21 02:15:38;;;;;;;9.68;8.18;;;;;;;12.30;100.00;96050.53;1026814;28;20038;-72
2021/08/21 02:16:08;;;;;;;11.77;8.85;;;;;;;12.30;100.00;96041.84;1022530;28;20267;-71
2021/08/21 02:16:39;;;;;;;10.30;7.97;;;;;;;12.29;100.00;96048.97;1026557;28;20031;-71
2021/08/21 02:17:10;;;;;;;10.93;8.50;;;;;;;12.28;100.00;96044.75;1030907;28;20026;-71
2021/08/21 02:17:40;;;;;;;12.55;8.35;;;;;;;12.29;100.00;96048.19;1034639;28;20026;-71
2021/08/21 02:18:11;;;;;;;9.27;8.27;;;;;;;12.28;100.00;96047.41;1032277;28;20160;-71
2021/08/21 02:18:41;;;;;;;11.45;8.52;;;;;;;12.26;100.00;96047.66;1030951;28;20023;-71
2021/08/21 02:19:12;;;;;;;11.95;8.68;;;;;;;12.25;100.00;96048.72;1026766;28;20027;-71
2021/08/21 02:19:42;;;;;;;19.25;9.48;;;;;;;12.27;100.00;96048.44;1022765;28;20156;-70
2021/08/21 02:20:13;;;;;;;11.27;8.38;;;;;;;12.29;100.00;96046.34;1026667;28;20039;-71
2021/08/21 02:20:45;;;;;;;12.27;8.63;;;;;;;12.27;100.00;96043.16;1029642;28;20519;-70
2021/08/21 02:21:19;;;;;;;14.23;8.55;;;;;;;12.26;100.00;96041.59;1027465;28;20429;-70
2021/08/21 02:21:50;;;;;;;13.23;9.13;;;;;;;12.26;100.00;96042.38;1038211;28;20268;-70
2021/08/21 02:22:20;;;;;;;12.05;8.68;;;;;;;12.25;100.00;96047.91;1035908;28;20307;-71
2021/08/21 02:22:51;;;;;;;9.82;8.57;;;;;;;12.25;100.00;96047.91;1034897;28;20033;-70
2021/08/21 02:23:21;;;;;;;10.00;8.77;;;;;;;12.24;100.00;96043.72;1030427;28;20205;-67
2021/08/21 02:23:52;;;;;;;9.07;8.10;;;;;;;12.20;100.00;96042.66;1032417;28;20030;-71